To NAV CANADA Home Page Login to a new session Search on AWWS site Feedback and Comments Disclaimer Vers la page française équivalente Tips FAQ What's new on the site To the Forecasts and Observations / NOTAM section To "File a Flight Plan" website Publications and other links Update of the User's profile FIC Telephone Numbers My Weather Data Folder Route Weather Data Regional Weather Data Local Weather Data To the Forecasts and Observations / NOTAM section
Request Generated 09/04/2015 at 18:43:08 UTC . Weather information available at that time is displayed.

METAR/TAF

LA GRANDE-4/QC    (show WxCam)

METAR CYAH 041800Z AUTO 27012KT 9SM CLR 24/14 A2999 RMK SLP164
DENSITY ALT 2100FT=
METAR CYAH 041700Z AUTO 24011G16KT 9SM OVC033 22/12 A2999 RMK SLP163
DENSITY ALT 1900FT=
METAR CYAH 041600Z AUTO 21014G19KT 190V250 9SM OVC035 21/11 A3000 RMK
SLP167 DENSITY ALT 1800FT=

TAF CYAH 041738Z 0418/0421 25012G22KT P6SM BKN030 PROB30 0419/0421
VRB20G30KT 2SM TSRA BR BKN020 OVC030CB
RMK FCST BASED ON AUTO OBS. NXT FCST WILL BE ISSUED AT 051045Z=
Your time UTC time
Weather data provided by Environment Canada and NAV CANADA